sensor_id;sensor_type;location;lat;lon;timestamp;temperature;humidity
13697;DHT22;6920;50.080;8.226;2023-04-15T00:01:26;6.50;99.90
13697;DHT22;6920;50.080;8.226;2023-04-15T00:03:55;6.50;99.90
13697;DHT22;6920;50.080;8.226;2023-04-15T00:06:31;6.70;99.90
13697;DHT22;6920;50.080;8.226;2023-04-15T00:09:02;6.80;99.90
13697;DHT22;6920;50.080;8.226;2023-04-15T00:11:32;6.90;99.90
13697;DHT22;6920;50.080;8.226;2023-04-15T00:14:02;6.90;99.90
13697;DHT22;6920;50.080;8.226;2023-04-15T00:16:32;6.80;99.90
13697;DHT22;6920;50.080;8.226;2023-04-15T00:19:07;6.70;99.90
13697;DHT22;6920;50.080;8.226;2023-04-15T00:21:42;6.50;99.90
13697;DHT22;6920;50.080;8.226;2023-04-15T00:24:12;6.40;99.90
13697;DHT22;6920;50.080;8.226;2023-04-15T00:26:40;6.40;99.90
13697;DHT22;6920;50.080;8.226;2023-04-15T00:29:07;6.30;99.90
13697;DHT22;6920;50.080;8.226;2023-04-15T00:31:35;6.40;99.90
13697;DHT22;6920;50.080;8.226;2023-04-15T00:34:06;6.50;99.90
13697;DHT22;6920;50.080;8.226;2023-04-15T00:36:34;6.40;99.90
13697;DHT22;6920;50.080;8.226;2023-04-15T00:39:13;6.30;99.90
13697;DHT22;6920;50.080;8.226;2023-04-15T00:41:41;6.30;99.90
13697;DHT22;6920;50.080;8.226;2023-04-15T00:44:10;6.30;99.90
13697;DHT22;6920;50.080;8.226;2023-04-15T00:46:40;6.30;99.90
13697;DHT22;6920;50.080;8.226;2023-04-15T00:49:08;6.30;99.90
13697;DHT22;6920;50.080;8.226;2023-04-15T00:51:37;6.30;99.90
13697;DHT22;6920;50.080;8.226;2023-04-15T00:54:05;6.30;99.90
13697;DHT22;6920;50.080;8.226;2023-04-15T00:56:35;6.30;99.90
13697;DHT22;6920;50.080;8.226;2023-04-15T00:59:04;6.20;99.90
13697;DHT22;6920;50.080;8.226;2023-04-15T01:01:34;6.10;99.90
13697;DHT22;6920;50.080;8.226;2023-04-15T01:04:02;6.00;99.90
13697;DHT22;6920;50.080;8.226;2023-04-15T01:06:31;5.90;99.90
13697;DHT22;6920;50.080;8.226;2023-04-15T01:09:15;5.80;99.90
13697;DHT22;6920;50.080;8.226;2023-04-15T01:11:44;5.80;99.90
13697;DHT22;6920;50.080;8.226;2023-04-15T01:14:13;5.90;99.90
13697;DHT22;6920;50.080;8.226;2023-04-15T01:16:40;5.80;99.90
13697;DHT22;6920;50.080;8.226;2023-04-15T01:19:10;5.80;99.90
13697;DHT22;6920;50.080;8.226;2023-04-15T01:21:41;5.80;99.90
13697;DHT22;6920;50.080;8.226;2023-04-15T01:24:10;5.80;99.90
13697;DHT22;6920;50.080;8.226;2023-04-15T01:26:41;5.70;99.90
13697;DHT22;6920;50.080;8.226;2023-04-15T01:29:09;5.70;99.90
13697;DHT22;6920;50.080;8.226;2023-04-15T01:31:38;5.80;99.90
13697;DHT22;6920;50.080;8.226;2023-04-15T01:34:06;5.90;99.90
13697;DHT22;6920;50.080;8.226;2023-04-15T01:36:35;6.10;99.90
13697;DHT22;6920;50.080;8.226;2023-04-15T01:39:03;6.20;99.90
13697;DHT22;6920;50.080;8.226;2023-04-15T01:41:33;6.10;99.90
13697;DHT22;6920;50.080;8.226;2023-04-15T01:44:09;6.20;99.90
13697;DHT22;6920;50.080;8.226;2023-04-15T01:46:39;6.30;99.90
13697;DHT22;6920;50.080;8.226;2023-04-15T01:49:06;6.40;99.90
13697;DHT22;6920;50.080;8.226;2023-04-15T01:51:33;6.30;99.90
13697;DHT22;6920;50.080;8.226;2023-04-15T01:54:05;6.30;99.90
13697;DHT22;6920;50.080;8.226;2023-04-15T01:56:45;6.30;99.90
13697;DHT22;6920;50.080;8.226;2023-04-15T01:59:18;6.20;99.90
13697;DHT22;6920;50.080;8.226;2023-04-15T02:01:47;6.00;99.90
13697;DHT22;6920;50.080;8.226;2023-04-15T02:04:17;6.00;99.90
13697;DHT22;6920;50.080;8.226;2023-04-15T02:06:45;5.60;99.90
13697;DHT22;6920;50.080;8.226;2023-04-15T02:09:13;5.60;99.90
13697;DHT22;6920;50.080;8.226;2023-04-15T02:11:42;5.50;99.90
13697;DHT22;6920;50.080;8.226;2023-04-15T02:14:10;5.40;99.90
13697;DHT22;6920;50.080;8.226;2023-04-15T02:16:40;5.50;99.90
13697;DHT22;6920;50.080;8.226;2023-04-15T02:19:10;5.50;99.90
13697;DHT22;6920;50.080;8.226;2023-04-15T02:21:39;5.60;99.90
13697;DHT22;6920;50.080;8.226;2023-04-15T02:24:08;5.60;99.90
13697;DHT22;6920;50.080;8.226;2023-04-15T02:26:36;5.60;99.90
13697;DHT22;6920;50.080;8.226;2023-04-15T02:29:04;5.60;99.90
13697;DHT22;6920;50.080;8.226;2023-04-15T02:31:33;5.60;99.90
13697;DHT22;6920;50.080;8.226;2023-04-15T02:34:14;5.60;99.90
13697;DHT22;6920;50.080;8.226;2023-04-15T02:36:45;5.40;99.90
13697;DHT22;6920;50.080;8.226;2023-04-15T02:39:20;5.40;99.90
13697;DHT22;6920;50.080;8.226;2023-04-15T02:41:49;5.50;99.90
13697;DHT22;6920;50.080;8.226;2023-04-15T02:44:27;5.30;99.90
13697;DHT22;6920;50.080;8.226;2023-04-15T02:46:57;5.30;99.90
13697;DHT22;6920;50.080;8.226;2023-04-15T02:49:26;5.50;99.90
13697;DHT22;6920;50.080;8.226;2023-04-15T02:51:57;5.40;99.90
13697;DHT22;6920;50.080;8.226;2023-04-15T02:54:26;5.40;99.90
13697;DHT22;6920;50.080;8.226;2023-04-15T02:56:55;5.40;99.90
13697;DHT22;6920;50.080;8.226;2023-04-15T02:59:24;5.40;99.90
13697;DHT22;6920;50.080;8.226;2023-04-15T03:01:52;5.40;99.90
13697;DHT22;6920;50.080;8.226;2023-04-15T03:04:29;5.70;99.90
13697;DHT22;6920;50.080;8.226;2023-04-15T03:06:56;5.70;99.90
13697;DHT22;6920;50.080;8.226;2023-04-15T03:09:25;5.70;99.90
13697;DHT22;6920;50.080;8.226;2023-04-15T03:12:06;5.70;99.90
13697;DHT22;6920;50.080;8.226;2023-04-15T03:14:37;5.30;99.90
13697;DHT22;6920;50.080;8.226;2023-04-15T03:17:04;5.30;99.90
13697;DHT22;6920;50.080;8.226;2023-04-15T03:19:46;5.20;99.90
13697;DHT22;6920;50.080;8.226;2023-04-15T03:22:15;5.30;99.90
13697;DHT22;6920;50.080;8.226;2023-04-15T03:24:43;5.40;99.90
13697;DHT22;6920;50.080;8.226;2023-04-15T03:27:10;5.30;99.90
13697;DHT22;6920;50.080;8.226;2023-04-15T03:29:37;5.20;99.90
13697;DHT22;6920;50.080;8.226;2023-04-15T03:32:06;5.10;99.90
13697;DHT22;6920;50.080;8.226;2023-04-15T03:34:34;5.20;99.90
13697;DHT22;6920;50.080;8.226;2023-04-15T03:37:05;5.20;99.90
13697;DHT22;6920;50.080;8.226;2023-04-15T03:39:32;5.30;99.90
13697;DHT22;6920;50.080;8.226;2023-04-15T03:41:59;3.60;99.90
13697;DHT22;6920;50.080;8.226;2023-04-15T03:44:26;5.40;99.90
13697;DHT22;6920;50.080;8.226;2023-04-15T03:46:53;5.30;99.90
13697;DHT22;6920;50.080;8.226;2023-04-15T03:49:22;5.30;99.90
13697;DHT22;6920;50.080;8.226;2023-04-15T03:51:50;5.30;99.90
13697;DHT22;6920;50.080;8.226;2023-04-15T03:54:19;5.10;99.90
13697;DHT22;6920;50.080;8.226;2023-04-15T03:56:47;5.00;99.90
13697;DHT22;6920;50.080;8.226;2023-04-15T03:59:18;5.10;99.90
13697;DHT22;6920;50.080;8.226;2023-04-15T04:01:47;5.10;99.90
13697;DHT22;6920;50.080;8.226;2023-04-15T04:04:14;5.10;99.90
13697;DHT22;6920;50.080;8.226;2023-04-15T04:06:41;5.10;99.90
13697;DHT22;6920;50.080;8.226;2023-04-15T04:09:09;5.00;99.90
13697;DHT22;6920;50.080;8.226;2023-04-15T04:11:36;5.00;99.90
13697;DHT22;6920;50.080;8.226;2023-04-15T04:14:04;5.00;99.90
13697;DHT22;6920;50.080;8.226;2023-04-15T04:16:33;5.00;99.90
13697;DHT22;6920;50.080;8.226;2023-04-15T04:19:01;5.00;99.90
13697;DHT22;6920;50.080;8.226;2023-04-15T04:21:29;5.30;99.90
13697;DHT22;6920;50.080;8.226;2023-04-15T04:23:58;5.20;99.90
13697;DHT22;6920;50.080;8.226;2023-04-15T04:26:34;5.40;99.90
13697;DHT22;6920;50.080;8.226;2023-04-15T04:29:03;5.40;99.90
13697;DHT22;6920;50.080;8.226;2023-04-15T04:31:35;5.40;99.90
13697;DHT22;6920;50.080;8.226;2023-04-15T04:34:03;5.30;99.90
13697;DHT22;6920;50.080;8.226;2023-04-15T04:36:30;5.20;99.90
13697;DHT22;6920;50.080;8.226;2023-04-15T04:38:59;5.20;99.90
13697;DHT22;6920;50.080;8.226;2023-04-15T04:41:28;5.30;99.90
13697;DHT22;6920;50.080;8.226;2023-04-15T04:43:55;5.40;99.90
13697;DHT22;6920;50.080;8.226;2023-04-15T04:46:26;5.50;99.90
13697;DHT22;6920;50.080;8.226;2023-04-15T04:48:54;5.50;99.90
13697;DHT22;6920;50.080;8.226;2023-04-15T04:51:26;5.50;99.90
13697;DHT22;6920;50.080;8.226;2023-04-15T04:53:54;5.40;99.90
13697;DHT22;6920;50.080;8.226;2023-04-15T04:56:24;5.30;99.90
13697;DHT22;6920;50.080;8.226;2023-04-15T04:58:54;5.30;99.90
13697;DHT22;6920;50.080;8.226;2023-04-15T05:01:21;5.20;99.90
13697;DHT22;6920;50.080;8.226;2023-04-15T05:03:49;5.40;99.90
13697;DHT22;6920;50.080;8.226;2023-04-15T05:06:18;5.50;99.90
13697;DHT22;6920;50.080;8.226;2023-04-15T05:08:47;5.40;99.90
13697;DHT22;6920;50.080;8.226;2023-04-15T05:11:14;5.30;99.90
13697;DHT22;6920;50.080;8.226;2023-04-15T05:13:43;5.30;99.90
13697;DHT22;6920;50.080;8.226;2023-04-15T05:16:14;5.30;99.90
13697;DHT22;6920;50.080;8.226;2023-04-15T05:18:44;5.30;99.90
13697;DHT22;6920;50.080;8.226;2023-04-15T05:21:12;5.40;99.90
13697;DHT22;6920;50.080;8.226;2023-04-15T05:23:42;5.60;99.90
13697;DHT22;6920;50.080;8.226;2023-04-15T05:26:11;5.60;99.90
13697;DHT22;6920;50.080;8.226;2023-04-15T05:28:38;5.70;99.90
13697;DHT22;6920;50.080;8.226;2023-04-15T05:31:07;5.70;99.90
13697;DHT22;6920;50.080;8.226;2023-04-15T05:33:41;5.70;99.90
13697;DHT22;6920;50.080;8.226;2023-04-15T05:36:09;5.70;99.90
13697;DHT22;6920;50.080;8.226;2023-04-15T05:38:39;5.70;99.90
13697;DHT22;6920;50.080;8.226;2023-04-15T05:41:06;5.80;99.90
13697;DHT22;6920;50.080;8.226;2023-04-15T05:43:35;5.70;99.90
13697;DHT22;6920;50.080;8.226;2023-04-15T05:46:03;5.70;99.90
13697;DHT22;6920;50.080;8.226;2023-04-15T05:48:31;5.70;99.90
13697;DHT22;6920;50.080;8.226;2023-04-15T05:51:00;5.60;99.90
13697;DHT22;6920;50.080;8.226;2023-04-15T05:53:31;5.60;99.90
13697;DHT22;6920;50.080;8.226;2023-04-15T05:56:00;5.50;99.90
13697;DHT22;6920;50.080;8.226;2023-04-15T05:58:28;5.50;99.90
13697;DHT22;6920;50.080;8.226;2023-04-15T06:00:56;5.40;99.90
13697;DHT22;6920;50.080;8.226;2023-04-15T06:03:28;5.40;99.90
13697;DHT22;6920;50.080;8.226;2023-04-15T06:05:56;5.50;99.90
13697;DHT22;6920;50.080;8.226;2023-04-15T06:08:25;5.60;99.90
13697;DHT22;6920;50.080;8.226;2023-04-15T06:10:54;5.70;99.90
13697;DHT22;6920;50.080;8.226;2023-04-15T06:13:23;5.70;99.90
13697;DHT22;6920;50.080;8.226;2023-04-15T06:15:50;5.80;99.90
13697;DHT22;6920;50.080;8.226;2023-04-15T06:18:17;5.90;99.90
13697;DHT22;6920;50.080;8.226;2023-04-15T06:20:46;6.00;99.90
13697;DHT22;6920;50.080;8.226;2023-04-15T06:23:14;6.00;99.90
13697;DHT22;6920;50.080;8.226;2023-04-15T06:25:47;6.10;99.90
13697;DHT22;6920;50.080;8.226;2023-04-15T06:28:17;6.10;99.90
13697;DHT22;6920;50.080;8.226;2023-04-15T06:30:47;6.30;99.90
13697;DHT22;6920;50.080;8.226;2023-04-15T06:33:25;6.30;99.90
13697;DHT22;6920;50.080;8.226;2023-04-15T06:35:53;6.30;99.90
13697;DHT22;6920;50.080;8.226;2023-04-15T06:38:21;6.30;99.90
13697;DHT22;6920;50.080;8.226;2023-04-15T06:40:56;6.30;99.90
13697;DHT22;6920;50.080;8.226;2023-04-15T06:43:26;6.40;99.90
13697;DHT22;6920;50.080;8.226;2023-04-15T06:45:55;6.60;99.90
13697;DHT22;6920;50.080;8.226;2023-04-15T06:48:23;6.60;99.90
13697;DHT22;6920;50.080;8.226;2023-04-15T06:50:52;6.70;99.90
13697;DHT22;6920;50.080;8.226;2023-04-15T06:53:23;6.80;99.90
13697;DHT22;6920;50.080;8.226;2023-04-15T06:55:57;7.90;99.90
13697;DHT22;6920;50.080;8.226;2023-04-15T06:58:27;7.10;99.90
13697;DHT22;6920;50.080;8.226;2023-04-15T07:00:56;7.20;99.90
13697;DHT22;6920;50.080;8.226;2023-04-15T07:03:23;7.40;99.90
13697;DHT22;6920;50.080;8.226;2023-04-15T07:05:50;7.70;99.90
13697;DHT22;6920;50.080;8.226;2023-04-15T07:08:20;8.00;99.90
13697;DHT22;6920;50.080;8.226;2023-04-15T07:10:49;8.30;99.90
13697;DHT22;6920;50.080;8.226;2023-04-15T07:13:18;8.60;99.90
13697;DHT22;6920;50.080;8.226;2023-04-15T07:15:48;8.60;99.90
13697;DHT22;6920;50.080;8.226;2023-04-15T07:18:18;8.60;99.90
13697;DHT22;6920;50.080;8.226;2023-04-15T07:20:46;8.90;99.90
13697;DHT22;6920;50.080;8.226;2023-04-15T07:23:13;9.20;99.90
13697;DHT22;6920;50.080;8.226;2023-04-15T07:25:48;9.60;99.90
13697;DHT22;6920;50.080;8.226;2023-04-15T07:28:21;9.90;99.90
13697;DHT22;6920;50.080;8.226;2023-04-15T07:30:49;10.20;99.90
13697;DHT22;6920;50.080;8.226;2023-04-15T07:33:17;10.50;99.90
13697;DHT22;6920;50.080;8.226;2023-04-15T07:35:44;10.70;99.90
13697;DHT22;6920;50.080;8.226;2023-04-15T07:38:11;10.90;99.90
13697;DHT22;6920;50.080;8.226;2023-04-15T07:40:42;10.70;99.90
13697;DHT22;6920;50.080;8.226;2023-04-15T07:43:09;10.90;99.90
13697;DHT22;6920;50.080;8.226;2023-04-15T07:45:44;10.70;99.90
13697;DHT22;6920;50.080;8.226;2023-04-15T07:48:12;11.30;99.90
13697;DHT22;6920;50.080;8.226;2023-04-15T07:50:40;11.70;99.90
13697;DHT22;6920;50.080;8.226;2023-04-15T07:53:07;11.70;99.90
13697;DHT22;6920;50.080;8.226;2023-04-15T07:55:35;12.20;99.90
13697;DHT22;6920;50.080;8.226;2023-04-15T07:58:05;12.60;99.90
13697;DHT22;6920;50.080;8.226;2023-04-15T08:00:33;12.30;99.90
13697;DHT22;6920;50.080;8.226;2023-04-15T08:03:08;12.50;99.90
13697;DHT22;6920;50.080;8.226;2023-04-15T08:05:36;13.00;99.90
13697;DHT22;6920;50.080;8.226;2023-04-15T08:08:05;13.40;99.90
13697;DHT22;6920;50.080;8.226;2023-04-15T08:10:33;13.70;99.90
13697;DHT22;6920;50.080;8.226;2023-04-15T08:13:02;14.00;99.90
13697;DHT22;6920;50.080;8.226;2023-04-15T08:15:29;14.30;99.90
13697;DHT22;6920;50.080;8.226;2023-04-15T08:17:58;14.30;99.90
13697;DHT22;6920;50.080;8.226;2023-04-15T08:20:29;14.30;99.90
13697;DHT22;6920;50.080;8.226;2023-04-15T08:22:57;14.60;99.90
13697;DHT22;6920;50.080;8.226;2023-04-15T08:25:24;14.90;99.90
13697;DHT22;6920;50.080;8.226;2023-04-15T08:27:54;15.30;99.90
13697;DHT22;6920;50.080;8.226;2023-04-15T08:30:23;15.60;99.90
13697;DHT22;6920;50.080;8.226;2023-04-15T08:32:51;15.80;99.90
13697;DHT22;6920;50.080;8.226;2023-04-15T08:35:21;15.00;99.90
13697;DHT22;6920;50.080;8.226;2023-04-15T08:37:57;15.20;99.90
13697;DHT22;6920;50.080;8.226;2023-04-15T08:40:34;15.20;99.90
13697;DHT22;6920;50.080;8.226;2023-04-15T08:43:07;15.40;99.90
13697;DHT22;6920;50.080;8.226;2023-04-15T08:45:38;15.60;99.90
13697;DHT22;6920;50.080;8.226;2023-04-15T08:48:07;15.70;99.90
13697;DHT22;6920;50.080;8.226;2023-04-15T08:50:36;15.60;99.90
13697;DHT22;6920;50.080;8.226;2023-04-15T08:53:06;15.70;99.90
13697;DHT22;6920;50.080;8.226;2023-04-15T08:55:35;15.80;99.90
13697;DHT22;6920;50.080;8.226;2023-04-15T08:58:07;15.90;99.90
13697;DHT22;6920;50.080;8.226;2023-04-15T09:03:04;15.40;98.40
13697;DHT22;6920;50.080;8.226;2023-04-15T09:08:01;14.70;97.70
13697;DHT22;6920;50.080;8.226;2023-04-15T09:10:34;14.40;97.60
13697;DHT22;6920;50.080;8.226;2023-04-15T09:13:03;14.50;98.30
13697;DHT22;6920;50.080;8.226;2023-04-15T09:15:33;14.80;97.90
13697;DHT22;6920;50.080;8.226;2023-04-15T09:18:04;15.00;97.90
13697;DHT22;6920;50.080;8.226;2023-04-15T09:20:38;14.80;97.60
13697;DHT22;6920;50.080;8.226;2023-04-15T09:23:11;14.80;95.80
13697;DHT22;6920;50.080;8.226;2023-04-15T09:25:49;14.90;96.40
13697;DHT22;6920;50.080;8.226;2023-04-15T09:28:23;14.60;95.60
13697;DHT22;6920;50.080;8.226;2023-04-15T09:30:54;14.80;96.10
13697;DHT22;6920;50.080;8.226;2023-04-15T09:33:23;14.60;95.40
13697;DHT22;6920;50.080;8.226;2023-04-15T09:36:00;15.00;95.40
13697;DHT22;6920;50.080;8.226;2023-04-15T09:38:30;14.50;95.80
13697;DHT22;6920;50.080;8.226;2023-04-15T09:41:16;14.60;96.10
13697;DHT22;6920;50.080;8.226;2023-04-15T09:43:45;14.70;95.80
13697;DHT22;6920;50.080;8.226;2023-04-15T09:46:13;14.80;96.00
13697;DHT22;6920;50.080;8.226;2023-04-15T09:48:42;14.60;96.30
13697;DHT22;6920;50.080;8.226;2023-04-15T09:51:10;14.60;96.80
13697;DHT22;6920;50.080;8.226;2023-04-15T09:53:37;14.60;97.50
13697;DHT22;6920;50.080;8.226;2023-04-15T09:56:07;14.60;97.60
13697;DHT22;6920;50.080;8.226;2023-04-15T09:58:36;14.60;97.60
13697;DHT22;6920;50.080;8.226;2023-04-15T10:01:04;14.50;97.10
13697;DHT22;6920;50.080;8.226;2023-04-15T10:03:34;14.60;97.70
13697;DHT22;6920;50.080;8.226;2023-04-15T10:06:02;14.60;97.50
13697;DHT22;6920;50.080;8.226;2023-04-15T10:08:32;14.60;97.40
13697;DHT22;6920;50.080;8.226;2023-04-15T10:11:02;14.70;97.50
13697;DHT22;6920;50.080;8.226;2023-04-15T10:13:33;15.00;97.00
13697;DHT22;6920;50.080;8.226;2023-04-15T10:16:09;15.20;96.40
13697;DHT22;6920;50.080;8.226;2023-04-15T10:18:42;15.00;96.70
13697;DHT22;6920;50.080;8.226;2023-04-15T10:21:13;14.70;96.10
13697;DHT22;6920;50.080;8.226;2023-04-15T10:23:44;14.80;96.40
13697;DHT22;6920;50.080;8.226;2023-04-15T10:26:12;14.70;95.90
13697;DHT22;6920;50.080;8.226;2023-04-15T10:28:46;14.70;96.20
13697;DHT22;6920;50.080;8.226;2023-04-15T10:31:14;14.50;96.00
13697;DHT22;6920;50.080;8.226;2023-04-15T10:33:41;14.60;96.40
13697;DHT22;6920;50.080;8.226;2023-04-15T10:36:11;14.50;96.20
13697;DHT22;6920;50.080;8.226;2023-04-15T10:38:39;14.50;96.40
13697;DHT22;6920;50.080;8.226;2023-04-15T10:41:18;14.50;96.30
13697;DHT22;6920;50.080;8.226;2023-04-15T10:43:51;14.40;95.90
13697;DHT22;6920;50.080;8.226;2023-04-15T10:46:21;14.30;95.50
13697;DHT22;6920;50.080;8.226;2023-04-15T10:48:52;14.10;95.20
13697;DHT22;6920;50.080;8.226;2023-04-15T10:51:30;14.20;95.40
13697;DHT22;6920;50.080;8.226;2023-04-15T10:53:58;14.10;95.90
13697;DHT22;6920;50.080;8.226;2023-04-15T10:56:28;14.10;96.00
13697;DHT22;6920;50.080;8.226;2023-04-15T10:58:58;14.00;96.10
13697;DHT22;6920;50.080;8.226;2023-04-15T11:01:52;13.80;95.30
13697;DHT22;6920;50.080;8.226;2023-04-15T11:04:52;13.80;94.90
13697;DHT22;6920;50.080;8.226;2023-04-15T11:07:37;13.60;94.80
13697;DHT22;6920;50.080;8.226;2023-04-15T11:13:20;13.80;95.50
13697;DHT22;6920;50.080;8.226;2023-04-15T11:15:59;14.20;94.70
13697;DHT22;6920;50.080;8.226;2023-04-15T11:18:29;14.40;94.80
13697;DHT22;6920;50.080;8.226;2023-04-15T11:21:04;14.30;94.80
13697;DHT22;6920;50.080;8.226;2023-04-15T11:23:38;14.30;94.90
13697;DHT22;6920;50.080;8.226;2023-04-15T11:26:07;14.40;95.40
13697;DHT22;6920;50.080;8.226;2023-04-15T11:28:39;14.20;95.50
13697;DHT22;6920;50.080;8.226;2023-04-15T11:31:10;14.20;95.90
13697;DHT22;6920;50.080;8.226;2023-04-15T11:33:43;14.00;96.40
13697;DHT22;6920;50.080;8.226;2023-04-15T11:36:14;14.30;96.30
13697;DHT22;6920;50.080;8.226;2023-04-15T11:38:45;14.40;96.80
13697;DHT22;6920;50.080;8.226;2023-04-15T11:41:13;14.00;96.80
13697;DHT22;6920;50.080;8.226;2023-04-15T11:43:41;14.00;97.30
13697;DHT22;6920;50.080;8.226;2023-04-15T11:46:12;14.10;96.90
13697;DHT22;6920;50.080;8.226;2023-04-15T11:48:42;14.30;97.00
13697;DHT22;6920;50.080;8.226;2023-04-15T11:51:10;14.50;97.40
13697;DHT22;6920;50.080;8.226;2023-04-15T11:53:41;14.60;97.30
13697;DHT22;6920;50.080;8.226;2023-04-15T11:56:16;14.50;98.10
13697;DHT22;6920;50.080;8.226;2023-04-15T11:58:45;14.40;99.00
13697;DHT22;6920;50.080;8.226;2023-04-15T12:01:13;14.50;99.00
13697;DHT22;6920;50.080;8.226;2023-04-15T12:03:47;14.30;99.50
13697;DHT22;6920;50.080;8.226;2023-04-15T12:06:17;14.20;99.90
13697;DHT22;6920;50.080;8.226;2023-04-15T12:08:50;14.20;99.90
13697;DHT22;6920;50.080;8.226;2023-04-15T12:11:21;14.30;99.90
13697;DHT22;6920;50.080;8.226;2023-04-15T12:13:58;14.50;99.80
13697;DHT22;6920;50.080;8.226;2023-04-15T12:16:28;14.40;99.80
13697;DHT22;6920;50.080;8.226;2023-04-15T12:18:58;14.40;99.90
13697;DHT22;6920;50.080;8.226;2023-04-15T12:21:32;14.30;99.90
13697;DHT22;6920;50.080;8.226;2023-04-15T12:24:03;14.00;99.90
13697;DHT22;6920;50.080;8.226;2023-04-15T12:26:35;13.90;99.90
13697;DHT22;6920;50.080;8.226;2023-04-15T12:29:05;13.70;99.90
13697;DHT22;6920;50.080;8.226;2023-04-15T12:34:07;13.70;99.90
13697;DHT22;6920;50.080;8.226;2023-04-15T12:39:05;14.00;99.90
13697;DHT22;6920;50.080;8.226;2023-04-15T12:44:00;14.10;99.90
13697;DHT22;6920;50.080;8.226;2023-04-15T12:46:28;14.00;99.90
13697;DHT22;6920;50.080;8.226;2023-04-15T12:48:56;13.80;99.90
13697;DHT22;6920;50.080;8.226;2023-04-15T12:51:31;13.70;99.90
13697;DHT22;6920;50.080;8.226;2023-04-15T12:54:02;13.70;99.90
13697;DHT22;6920;50.080;8.226;2023-04-15T12:56:32;13.70;99.90
13697;DHT22;6920;50.080;8.226;2023-04-15T12:59:01;13.80;99.90
13697;DHT22;6920;50.080;8.226;2023-04-15T13:03:57;13.50;99.90
13697;DHT22;6920;50.080;8.226;2023-04-15T13:06:24;13.30;99.90
13697;DHT22;6920;50.080;8.226;2023-04-15T13:08:53;13.20;99.90
13697;DHT22;6920;50.080;8.226;2023-04-15T13:11:20;13.20;99.90
13697;DHT22;6920;50.080;8.226;2023-04-15T13:13:48;13.00;99.90
13697;DHT22;6920;50.080;8.226;2023-04-15T13:16:17;12.70;99.90
13697;DHT22;6920;50.080;8.226;2023-04-15T13:18:47;12.70;99.90
13697;DHT22;6920;50.080;8.226;2023-04-15T13:21:17;12.80;99.90
13697;DHT22;6920;50.080;8.226;2023-04-15T13:23:46;12.70;99.90
13697;DHT22;6920;50.080;8.226;2023-04-15T13:26:16;12.70;99.90
13697;DHT22;6920;50.080;8.226;2023-04-15T13:28:44;12.80;99.90
13697;DHT22;6920;50.080;8.226;2023-04-15T13:31:12;12.80;99.90
13697;DHT22;6920;50.080;8.226;2023-04-15T13:33:39;12.90;99.90
13697;DHT22;6920;50.080;8.226;2023-04-15T13:36:08;12.90;99.90
13697;DHT22;6920;50.080;8.226;2023-04-15T13:38:35;12.90;99.90
13697;DHT22;6920;50.080;8.226;2023-04-15T13:41:03;13.00;99.90
13697;DHT22;6920;50.080;8.226;2023-04-15T13:43:34;12.80;99.90
13697;DHT22;6920;50.080;8.226;2023-04-15T13:48:29;12.50;99.90
13697;DHT22;6920;50.080;8.226;2023-04-15T13:50:57;12.60;99.90
13697;DHT22;6920;50.080;8.226;2023-04-15T13:53:27;12.30;99.90
13697;DHT22;6920;50.080;8.226;2023-04-15T13:55:59;12.20;99.90
13697;DHT22;6920;50.080;8.226;2023-04-15T13:58:26;12.30;99.90
13697;DHT22;6920;50.080;8.226;2023-04-15T14:00:57;12.20;99.90
13697;DHT22;6920;50.080;8.226;2023-04-15T14:03:24;12.30;99.90
13697;DHT22;6920;50.080;8.226;2023-04-15T14:05:52;12.30;99.90
13697;DHT22;6920;50.080;8.226;2023-04-15T14:08:24;12.20;99.90
13697;DHT22;6920;50.080;8.226;2023-04-15T14:10:52;12.10;99.90
13697;DHT22;6920;50.080;8.226;2023-04-15T14:13:23;12.00;99.90
13697;DHT22;6920;50.080;8.226;2023-04-15T14:15:52;11.80;99.90
13697;DHT22;6920;50.080;8.226;2023-04-15T14:18:25;11.60;99.90
13697;DHT22;6920;50.080;8.226;2023-04-15T14:20:55;11.50;99.90
13697;DHT22;6920;50.080;8.226;2023-04-15T14:25:52;11.60;99.90
13697;DHT22;6920;50.080;8.226;2023-04-15T14:28:20;11.70;99.90
13697;DHT22;6920;50.080;8.226;2023-04-15T14:30:51;11.80;99.90
13697;DHT22;6920;50.080;8.226;2023-04-15T14:33:21;11.70;99.90
13697;DHT22;6920;50.080;8.226;2023-04-15T14:35:50;11.50;99.90
13697;DHT22;6920;50.080;8.226;2023-04-15T14:38:17;11.50;99.90
13697;DHT22;6920;50.080;8.226;2023-04-15T14:40:47;11.50;99.90
13697;DHT22;6920;50.080;8.226;2023-04-15T14:43:14;11.40;99.90
13697;DHT22;6920;50.080;8.226;2023-04-15T14:48:09;11.50;99.90
13697;DHT22;6920;50.080;8.226;2023-04-15T14:50:40;11.40;99.90
13697;DHT22;6920;50.080;8.226;2023-04-15T14:53:07;11.40;99.90
13697;DHT22;6920;50.080;8.226;2023-04-15T14:55:37;11.50;99.90
13697;DHT22;6920;50.080;8.226;2023-04-15T14:58:05;11.30;99.90
13697;DHT22;6920;50.080;8.226;2023-04-15T15:00:34;11.30;99.90
13697;DHT22;6920;50.080;8.226;2023-04-15T15:03:05;11.50;99.90
13697;DHT22;6920;50.080;8.226;2023-04-15T15:08:09;11.40;99.90
13697;DHT22;6920;50.080;8.226;2023-04-15T15:10:37;11.40;99.90
13697;DHT22;6920;50.080;8.226;2023-04-15T15:13:08;11.20;99.90
13697;DHT22;6920;50.080;8.226;2023-04-15T15:15:36;11.20;99.90
13697;DHT22;6920;50.080;8.226;2023-04-15T15:18:04;11.10;99.90
13697;DHT22;6920;50.080;8.226;2023-04-15T15:20:33;11.20;99.90
13697;DHT22;6920;50.080;8.226;2023-04-15T15:23:11;11.10;99.90
13697;DHT22;6920;50.080;8.226;2023-04-15T15:25:45;10.90;99.90
13697;DHT22;6920;50.080;8.226;2023-04-15T15:28:17;11.10;99.90
13697;DHT22;6920;50.080;8.226;2023-04-15T15:30:46;11.10;99.90
13697;DHT22;6920;50.080;8.226;2023-04-15T15:33:14;11.20;99.90
13697;DHT22;6920;50.080;8.226;2023-04-15T15:38:11;11.10;99.90
13697;DHT22;6920;50.080;8.226;2023-04-15T15:40:40;11.00;99.90
13697;DHT22;6920;50.080;8.226;2023-04-15T15:43:07;10.70;99.90
13697;DHT22;6920;50.080;8.226;2023-04-15T15:45:36;10.80;99.90
13697;DHT22;6920;50.080;8.226;2023-04-15T15:48:05;10.80;99.90
13697;DHT22;6920;50.080;8.226;2023-04-15T15:50:34;10.70;99.90
13697;DHT22;6920;50.080;8.226;2023-04-15T15:53:02;10.70;99.90
13697;DHT22;6920;50.080;8.226;2023-04-15T15:55:34;10.70;99.90
13697;DHT22;6920;50.080;8.226;2023-04-15T15:58:01;10.70;99.90
13697;DHT22;6920;50.080;8.226;2023-04-15T16:00:29;10.60;99.90
13697;DHT22;6920;50.080;8.226;2023-04-15T16:02:58;10.50;99.90
13697;DHT22;6920;50.080;8.226;2023-04-15T16:05:27;10.50;99.90
13697;DHT22;6920;50.080;8.226;2023-04-15T16:07:55;10.50;99.90
13697;DHT22;6920;50.080;8.226;2023-04-15T16:10:22;10.50;99.90
13697;DHT22;6920;50.080;8.226;2023-04-15T16:12:50;10.50;99.90
13697;DHT22;6920;50.080;8.226;2023-04-15T16:15:18;10.30;99.90
13697;DHT22;6920;50.080;8.226;2023-04-15T16:17:45;10.20;99.90
13697;DHT22;6920;50.080;8.226;2023-04-15T16:22:41;10.20;99.90
13697;DHT22;6920;50.080;8.226;2023-04-15T16:25:12;10.10;99.90
13697;DHT22;6920;50.080;8.226;2023-04-15T16:27:41;10.00;99.90
13697;DHT22;6920;50.080;8.226;2023-04-15T16:30:16;10.00;99.90
13697;DHT22;6920;50.080;8.226;2023-04-15T16:32:43;10.00;99.90
13697;DHT22;6920;50.080;8.226;2023-04-15T16:35:12;9.90;99.90
13697;DHT22;6920;50.080;8.226;2023-04-15T16:37:41;9.90;99.90
13697;DHT22;6920;50.080;8.226;2023-04-15T16:40:11;9.90;99.90
13697;DHT22;6920;50.080;8.226;2023-04-15T16:42:38;9.90;99.90